EGLL

London Heathrow Airport

London, United Kingdom
TAF EGLL 190501Z 1906/2012 02004KT 9999 FEW035 TEMPO 1906/1909 7000 PROB30 1906/1908 3000 BR MIFG BECMG 1922/2001 7000 TEMPO 2001/2006 3000 BR PROB30 TEMPO 2002/2006 0400 FG VV///
Issued Valid From Valid To
Oct-19 @ 05:01 UTC
(4 hours ago)
Oct-19 @ 06:00 UTC
(3 hours ago)
Oct-20 @ 12:00 UTC
(-1 days ago)
Oct-19 @ 06:00 to Oct-19 @ 22:00
TAF EGLL 190501Z 1906/2012 02004KT 9999 FEW035
Wind Visibility Clouds
20° at 4 knots 10,000+ meters
  • Few at 3,500' AGL
Expired Click to View Oct-19 @ 06:00 to Oct-19 @ 08:00
PROB30 1906/1908 3000 BR MIFG
Visibility Conditions
2,993 meters
  • Mist
  • Shallow
  • Fog
Expired Click to View Oct-19 @ 06:00 to Oct-19 @ 09:00
TEMPO 1906/1909 7000
Visibility
7,001 meters
Becoming Oct-19 @ 22:00 to Oct-20 @ 12:00
BECMG 1922/2001 7000
Wind Visibility Clouds
20° at 4 knots 7,001 meters
  • Few at 3,500' AGL
Temporary Oct-20 @ 01:00 to Oct-20 @ 06:00
TEMPO 2001/2006 3000 BR
Visibility Conditions
2,993 meters
  • Mist
Temporary  (Probability 30%) Oct-20 @ 02:00 to Oct-20 @ 06:00
PROB30 TEMPO 2002/2006 0400 FG VV///
Visibility Conditions
402 meters
  • Fog
TAF EGLL 190501Z 1906/2012 02004KT 9999 FEW035 TEMPO 1906/1909 7000 PROB30 1906/1908 3000 BR MIFG BECMG 1922/2001 7000 TEMPO 2001/2006 3000 BR PROB30 TEMPO 2002/2006 0400 FG VV///
Issued Oct-19 @ 05:01 UTC
(4 hours ago)
Valid From Oct-19 @ 06:00 UTC
(3 hours ago)
Valid To Oct-20 @ 12:00 UTC
(-1 days ago)
Oct-19 @ 06:00 - Oct-19 @ 22:00
Wind Visibility
20° at 4 knots 10,000+ meters
Clouds
  • Few at 3,500' AGL
Oct-19 @ 06:00 - Oct-19 @ 08:00
Conditions
  • Mist
  • Shallow
  • Fog
Oct-19 @ 06:00 - Oct-19 @ 09:00
Becoming Oct-19 @ 22:00 - Oct-20 @ 12:00
Wind Visibility
20° at 4 knots 7,001 meters
Clouds
  • Few at 3,500' AGL
Temporary Oct-20 @ 01:00 - Oct-20 @ 06:00
Conditions
  • Mist
Probability 30% Temporary Oct-20 @ 02:00 - Oct-20 @ 06:00
Conditions
  • Fog